Time;durP1;ratioP1;P1;durP2;ratioP2;P2;SDS_P1;SDS_P2;PMS_P1;PMS_P2;Temp;Humidity;BMP_temperature;BMP_pressure;BME280_temperature;BME280_humidity;BME280_pressure;Samples;Min_cycle;Max_cycle;Signal;HPM_P1;HPM_P2
2022/06/29 00:00:15;;;;;;;;;2.80;2.80;;;;;20.90;97.09;101121.47;5005581;28;45327;-85
2022/06/29 00:02:45;;;;;;;;;2.00;2.00;;;;;20.91;96.89;101113.19;5021724;28;45533;-87
2022/06/29 00:05:14;;;;;;;;;1.20;1.00;;;;;20.91;97.98;101125.84;5020394;28;44836;-87
2022/06/29 00:07:51;;;;;;;;;1.60;1.60;;;;;20.85;98.60;101110.28;5023223;28;44755;-85
2022/06/29 00:10:18;;;;;;;;;3.20;2.00;;;;;20.83;98.98;101118.53;5023317;28;44791;-85
2022/06/29 00:12:52;;;;;;;;;2.60;2.60;;;;;20.88;99.29;101120.75;5022769;28;45489;-85
2022/06/29 00:15:20;;;;;;;;;3.00;3.00;;;;;20.86;98.61;101109.28;5023245;28;44814;-84
2022/06/29 00:17:49;;;;;;;;;2.00;2.00;;;;;20.84;99.97;101114.84;5025480;28;44901;-83
2022/06/29 00:20:15;;;;;;;;;2.20;2.20;;;;;20.85;99.23;101113.84;5022624;28;45372;-84
2022/06/29 00:22:43;;;;;;;;;5.80;2.80;;;;;20.82;100.00;101113.31;5019373;28;45318;-84
2022/06/29 00:25:26;;;;;;;;;4.00;3.00;;;;;20.78;100.00;101104.66;5019006;28;45436;-83
2022/06/29 00:27:55;;;;;;;;;1.80;1.20;;;;;20.72;100.00;101105.31;5001321;28;45377;-83
2022/06/29 00:30:21;;;;;;;;;2.00;2.00;;;;;20.70;100.00;101105.47;5018164;28;44958;-84
2022/06/29 00:32:52;;;;;;;;;3.00;3.00;;;;;20.72;100.00;101113.41;5018480;28;45236;-83
2022/06/29 00:35:18;;;;;;;;;2.00;2.00;;;;;20.70;100.00;101104.63;5017408;28;45487;-84
2022/06/29 00:37:44;;;;;;;;;7.00;3.00;;;;;20.65;100.00;101098.88;4999795;28;44850;-84
2022/06/29 00:40:11;;;;;;;;;2.00;2.00;;;;;20.64;100.00;101100.69;4999454;28;44978;-84
2022/06/29 00:42:37;;;;;;;;;2.00;2.00;;;;;20.65;100.00;101104.28;4996663;28;46679;-84
2022/06/29 00:45:05;;;;;;;;;3.50;2.00;;;;;20.54;100.00;101079.22;4980570;28;45187;-84
2022/06/29 00:47:36;;;;;;;;;2.20;2.00;;;;;20.56;100.00;101089.03;5004992;28;45512;-84
2022/06/29 00:50:05;;;;;;;;;2.00;2.00;;;;;20.54;100.00;101097.25;5001476;28;44822;-84
2022/06/29 00:52:32;;;;;;;;;5.20;2.00;;;;;20.49;100.00;101097.72;4998814;28;46969;-84
2022/06/29 00:55:16;;;;;;;;;2.00;2.00;;;;;20.49;100.00;101095.03;4999190;28;45381;-83
2022/06/29 00:57:57;;;;;;;;;2.20;2.20;;;;;20.46;100.00;101087.25;4999196;28;44795;-84
2022/06/29 01:00:31;;;;;;;;;3.00;2.00;;;;;20.44;100.00;101088.38;4999539;28;45252;-84
2022/06/29 01:03:02;;;;;;;;;4.40;3.00;;;;;20.42;100.00;101076.91;5001316;28;45370;-83
2022/06/29 01:05:32;;;;;;;;;4.60;3.80;;;;;20.44;100.00;101089.22;5006522;28;44846;-83
2022/06/29 01:07:59;;;;;;;;;3.60;2.80;;;;;20.39;100.00;101082.63;5022809;28;45163;-84
2022/06/29 01:10:28;;;;;;;;;4.20;4.20;;;;;20.40;100.00;101092.41;5001802;28;45370;-84
2022/06/29 01:12:54;;;;;;;;;4.60;3.80;;;;;20.34;100.00;101099.28;5020059;28;45438;-85
2022/06/29 01:15:20;;;;;;;;;4.40;2.00;;;;;20.34;100.00;101095.75;5021370;28;44797;-85
2022/06/29 01:17:46;;;;;;;;;3.00;3.00;;;;;20.28;100.00;101094.53;5004706;28;44842;-84
2022/06/29 01:20:18;;;;;;;;;3.75;3.00;;;;;20.27;100.00;101085.59;5024218;28;44921;-84
2022/06/29 01:22:46;;;;;;;;;2.40;2.40;;;;;20.24;100.00;101087.75;5007358;28;45241;-84
2022/06/29 01:25:15;;;;;;;;;3.00;2.20;;;;;20.21;100.00;101093.44;5026277;28;45428;-85
2022/06/29 01:27:41;;;;;;;;;1.40;1.00;;;;;20.15;100.00;101088.69;5029577;28;45302;-85
2022/06/29 01:30:08;;;;;;;;;3.60;2.20;;;;;20.08;100.00;101091.16;5028861;28;45511;-85
2022/06/29 01:32:40;;;;;;;;;4.00;4.00;;;;;19.99;100.00;101084.84;5027831;28;45124;-85
2022/06/29 01:35:11;;;;;;;;;5.00;5.00;;;;;19.90;100.00;101084.94;5008204;28;44803;-85
2022/06/29 01:37:41;;;;;;;;;4.60;4.60;;;;;19.90;100.00;101090.31;5025307;28;44707;-85
2022/06/29 01:40:08;;;;;;;;;4.60;3.60;;;;;19.82;100.00;101090.22;5022996;28;44785;-84
2022/06/29 01:42:33;;;;;;;;;3.40;3.40;;;;;19.72;100.00;101080.38;5005124;28;45309;-84
2022/06/29 01:44:59;;;;;;;;;4.50;4.50;;;;;19.65;100.00;101081.16;5025178;28;45445;-84
2022/06/29 01:47:25;;;;;;;;;6.00;4.60;;;;;19.58;100.00;101088.09;5025705;28;44811;-84
2022/06/29 01:49:51;;;;;;;;;5.00;3.75;;;;;19.42;100.00;101078.00;5026611;28;44833;-83
2022/06/29 01:52:17;;;;;;;;;3.80;3.80;;;;;19.42;100.00;101080.72;5027866;28;45447;-83
2022/06/29 01:54:48;;;;;;;;;3.25;3.25;;;;;19.33;100.00;101076.22;5029310;28;44755;-84
2022/06/29 01:57:14;;;;;;;;;4.20;4.20;;;;;19.25;100.00;101077.84;5021202;28;45456;-84
2022/06/29 01:59:40;;;;;;;;;2.80;2.80;;;;;19.22;100.00;101074.59;5004276;28;45499;-84
2022/06/29 02:02:07;;;;;;;;;4.80;3.80;;;;;19.15;100.00;101079.75;5021877;28;45316;-84
2022/06/29 02:04:33;;;;;;;;;6.20;4.60;;;;;19.13;100.00;101073.63;5020239;28;45429;-83
2022/06/29 02:06:59;;;;;;;;;2.75;2.75;;;;;19.05;100.00;101070.88;5019862;28;45407;-84
2022/06/29 02:09:24;;;;;;;;;3.00;2.25;;;;;19.05;100.00;101067.31;5019434;28;45297;-84
2022/06/29 02:11:51;;;;;;;;;2.00;2.00;;;;;19.03;100.00;101080.94;5002306;28;45155;-84
2022/06/29 02:14:16;;;;;;;;;3.00;3.00;;;;;18.95;100.00;101089.75;5023823;28;45392;-83
2022/06/29 02:16:45;;;;;;;;;5.25;3.50;;;;;18.88;100.00;101085.09;5020357;28;45544;-84
2022/06/29 02:19:11;;;;;;;;;3.80;3.80;;;;;18.85;100.00;101091.63;5001166;28;45313;-83
2022/06/29 02:21:37;;;;;;;;;5.25;3.00;;;;;18.74;100.00;101089.13;5001856;28;46565;-84
2022/06/29 02:24:03;;;;;;;;;4.00;2.50;;;;;18.66;100.00;101079.06;5005146;28;45378;-83
2022/06/29 02:26:29;;;;;;;;;2.60;2.60;;;;;18.58;100.00;101078.94;5023119;28;44826;-83
2022/06/29 02:28:54;;;;;;;;;3.00;3.00;;;;;18.56;100.00;101089.00;5020487;28;44787;-83
2022/06/29 02:36:49;;;;;;;;;2.40;2.40;;;;;18.35;100.00;101091.88;5023831;28;44838;-83
2022/06/29 02:39:15;;;;;;;;;2.75;2.75;;;;;18.29;100.00;101086.25;5025229;28;45295;-85
2022/06/29 02:41:41;;;;;;;;;2.00;2.00;;;;;18.23;100.00;101084.97;5007402;28;45030;-85
2022/06/29 02:44:07;;;;;;;;;3.00;3.00;;;;;18.20;100.00;101074.50;5012769;28;44909;-85
2022/06/29 02:46:33;;;;;;;;;2.75;2.75;;;;;18.16;100.00;101078.47;5002281;28;45476;-84
2022/06/29 02:49:01;;;;;;;;;4.50;3.50;;;;;18.13;100.00;101079.63;5001703;28;45692;-86
2022/06/29 02:51:27;;;;;;;;;2.80;2.80;;;;;18.09;100.00;101085.41;5002467;28;45310;-85
2022/06/29 02:53:56;;;;;;;;;5.75;3.00;;;;;18.04;100.00;101074.25;5022675;28;44862;-85
2022/06/29 02:56:24;;;;;;;;;2.60;2.60;;;;;18.04;100.00;101077.78;5022405;28;45270;-85
2022/06/29 02:58:50;;;;;;;;;4.80;4.00;;;;;17.99;100.00;101074.69;5020251;28;45384;-86
2022/06/29 03:01:16;;;;;;;;;1.50;1.00;;;;;17.91;100.00;101061.09;4991843;28;46297;-85
2022/06/29 03:03:42;;;;;;;;;4.50;3.00;;;;;17.89;100.00;101061.25;4999416;28;44811;-85
2022/06/29 03:06:10;;;;;;;;;3.25;2.25;;;;;17.92;100.00;101069.00;4999643;28;45187;-85
2022/06/29 03:08:35;;;;;;;;;2.40;2.40;;;;;17.82;100.00;101060.09;4981496;28;45340;-85
2022/06/29 03:11:02;;;;;;;;;3.00;1.75;;;;;17.85;100.00;101064.34;4998714;28;45058;-83
2022/06/29 03:13:27;;;;;;;;;2.80;2.80;;;;;17.78;100.00;101061.34;4980571;28;44904;-84
2022/06/29 03:15:56;;;;;;;;;6.50;3.00;;;;;17.81;100.00;101079.06;4997571;28;44815;-84
2022/06/29 03:18:21;;;;;;;;;2.20;2.20;;;;;17.79;100.00;101079.19;5000261;28;45321;-84
2022/06/29 03:20:47;;;;;;;;;5.00;4.00;;;;;17.75;100.00;101079.63;5000618;28;45305;-84
2022/06/29 03:23:13;;;;;;;;;4.50;3.75;;;;;17.74;100.00;101084.13;5000476;28;44974;-84
2022/06/29 03:25:38;;;;;;;;;3.25;3.25;;;;;17.71;100.00;101085.25;4998200;28;44855;-84
2022/06/29 03:28:04;;;;;;;;;3.75;3.75;;;;;17.69;100.00;101081.81;4982566;28;45365;-84
2022/06/29 03:30:30;;;;;;;;;2.25;2.25;;;;;17.65;100.00;101072.38;5029409;28;45344;-84
2022/06/29 03:32:56;;;;;;;;;2.00;2.00;;;;;17.61;100.00;101073.63;5024017;28;44815;-84
2022/06/29 03:35:21;;;;;;;;;4.00;3.00;;;;;17.62;100.00;101075.31;5002830;28;45396;-84
2022/06/29 03:37:50;;;;;;;;;1.00;1.00;;;;;17.58;100.00;101073.91;5001530;28;45635;-84
2022/06/29 03:40:16;;;;;;;;;2.50;2.50;;;;;17.57;100.00;101074.06;5001200;28;45248;-84
2022/06/29 03:42:41;;;;;;;;;3.00;3.00;;;;;17.53;100.00;101065.41;4997323;28;45000;-83
2022/06/29 03:45:07;;;;;;;;;2.50;2.50;;;;;17.51;100.00;101071.94;5002017;28;45468;-83
2022/06/29 03:47:33;;;;;;;;;4.40;2.40;;;;;17.46;100.00;101069.66;5001473;28;44881;-84
2022/06/29 03:50:02;;;;;;;;;2.00;2.00;;;;;17.48;100.00;101067.69;4982808;28;45448;-83
2022/06/29 03:52:27;;;;;;;;;4.60;3.00;;;;;17.48;100.00;101065.84;4998059;28;45417;-84
2022/06/29 03:54:53;;;;;;;;;4.00;2.00;;;;;17.50;100.00;101068.38;4982457;28;45255;-84
2022/06/29 03:57:18;;;;;;;;;5.25;3.00;;;;;17.46;100.00;101062.44;5011738;28;44895;-84
2022/06/29 03:59:44;;;;;;;;;3.50;3.00;;;;;17.46;100.00;101065.13;5001956;28;45943;-83
2022/06/29 04:02:09;;;;;;;;;3.25;3.25;;;;;17.47;100.00;101063.28;5021085;28;44760;-86
2022/06/29 04:04:35;;;;;;;;;6.00;4.00;;;;;17.53;100.00;101068.09;5017656;28;45340;-86
2022/06/29 04:07:00;;;;;;;;;4.50;3.50;;;;;17.60;100.00;101076.44;5018060;28;45389;-85
2022/06/29 04:09:26;;;;;;;;;4.00;2.00;;;;;17.64;100.00;101064.44;5018084;28;45083;-86
2022/06/29 04:11:56;;;;;;;;;7.00;3.75;;;;;17.76;100.00;101075.94;5026263;28;45459;-86
2022/06/29 04:14:26;;;;;;;;;3.40;3.40;;;;;17.81;100.00;101063.78;5027486;28;45522;-85
2022/06/29 04:16:54;;;;;;;;;2.75;2.75;;;;;17.94;100.00;101072.41;5026267;28;44881;-84
2022/06/29 04:19:20;;;;;;;;;4.00;2.60;;;;;18.13;100.00;101071.56;5019112;28;45240;-85
2022/06/29 04:21:46;;;;;;;;;3.00;3.00;;;;;18.29;100.00;101072.78;5002261;28;45262;-85
2022/06/29 04:24:12;;;;;;;;;3.20;3.20;;;;;18.36;100.00;101057.75;5022118;28;44787;-86
2022/06/29 04:26:40;;;;;;;;;3.25;3.25;;;;;18.59;100.00;101064.50;5021490;28;45496;-85
2022/06/29 04:29:06;;;;;;;;;4.00;4.00;;;;;18.81;100.00;101066.03;5021979;28;46428;-85
2022/06/29 04:31:32;;;;;;;;;5.00;2.00;;;;;19.01;100.00;101069.47;5028158;28;44731;-84
2022/06/29 04:33:58;;;;;;;;;3.00;3.00;;;;;19.19;100.00;101070.34;5030544;28;44798;-86
2022/06/29 04:36:24;;;;;;;;;4.75;3.00;;;;;19.37;100.00;101069.53;5011766;28;45594;-84
2022/06/29 04:38:49;;;;;;;;;4.50;3.00;;;;;19.52;100.00;101063.47;5014536;28;45255;-85
2022/06/29 04:41:15;;;;;;;;;8.00;4.50;;;;;19.68;100.00;101067.38;5026609;28;45317;-85
2022/06/29 04:43:44;;;;;;;;;2.50;2.50;;;;;19.77;100.00;101061.91;5018017;28;45211;-85
2022/06/29 04:46:22;;;;;;;;;5.80;5.80;;;;;19.98;100.00;101060.75;5020442;28;44853;-85
2022/06/29 04:48:53;;;;;;;;;4.20;3.40;;;;;20.19;100.00;101057.69;5017618;28;45437;-84
2022/06/29 04:51:19;;;;;;;;;6.80;5.20;;;;;20.38;100.00;101057.50;5017033;28;45144;-84
2022/06/29 04:53:46;;;;;;;;;5.00;5.00;;;;;20.56;100.00;101062.03;5021733;28;44757;-84
2022/06/29 04:56:12;;;;;;;;;9.20;6.00;;;;;20.70;100.00;101050.63;5019187;28;45414;-85
2022/06/29 04:58:38;;;;;;;;;5.20;5.00;;;;;20.88;100.00;101056.78;4999774;28;45215;-84
2022/06/29 05:01:07;;;;;;;;;5.00;5.00;;;;;21.03;100.00;101047.06;5019226;28;44724;-85
2022/06/29 05:03:33;;;;;;;;;5.20;5.20;;;;;21.26;100.00;101054.56;5002525;28;44806;-84
2022/06/29 05:06:17;;;;;;;;;6.75;4.00;;;;;21.39;100.00;101041.47;5003793;28;44966;-84
2022/06/29 05:08:42;;;;;;;;;4.60;4.40;;;;;21.60;100.00;101042.84;5023676;28;45028;-85
2022/06/29 05:11:08;;;;;;;;;5.00;5.00;;;;;21.74;100.00;101043.03;5021519;28;44767;-85
2022/06/29 05:13:34;;;;;;;;;5.25;5.25;;;;;21.87;100.00;101036.28;5019233;28;45306;-84
2022/06/29 05:15:59;;;;;;;;;5.75;5.00;;;;;22.07;100.00;101034.91;5023771;28;44803;-85
2022/06/29 05:18:28;;;;;;;;;6.25;5.00;;;;;22.28;100.00;101032.53;5004413;28;45081;-84
2022/06/29 05:20:54;;;;;;;;;10.00;6.40;;;;;22.50;100.00;101040.97;5016516;28;44778;-84
2022/06/29 05:23:20;;;;;;;;;7.20;5.80;;;;;22.68;100.00;101030.75;4999315;28;45381;-85
2022/06/29 05:25:45;;;;;;;;;5.75;5.50;;;;;22.76;100.00;101038.00;5016268;28;45239;-83
2022/06/29 05:28:13;;;;;;;;;4.50;4.00;;;;;22.77;100.00;101043.28;5016124;28;45173;-84
2022/06/29 05:30:39;;;;;;;;;5.00;5.00;;;;;22.77;100.00;101050.53;5018509;28;44813;-83
2022/06/29 05:33:05;;;;;;;;;7.75;5.75;;;;;22.75;100.00;101048.00;5018050;28;45315;-84
2022/06/29 05:35:34;;;;;;;;;4.40;4.40;;;;;22.87;100.00;101037.66;5018847;28;44830;-83
2022/06/29 05:38:01;;;;;;;;;4.20;4.20;;;;;23.14;100.00;101035.50;5018664;28;45263;-83
2022/06/29 05:40:27;;;;;;;;;5.20;4.00;;;;;23.36;100.00;101033.88;5016047;28;44768;-83
2022/06/29 05:42:52;;;;;;;;;3.60;3.60;;;;;23.58;100.00;101044.72;5011391;28;44791;-84
2022/06/29 05:45:19;;;;;;;;;5.50;5.50;;;;;23.70;100.00;101047.06;4998452;28;45442;-83
2022/06/29 05:47:44;;;;;;;;;9.60;7.00;;;;;23.37;100.00;101055.38;5021279;28;45167;-83
2022/06/29 05:50:10;;;;;;;;;5.75;5.00;;;;;22.50;100.00;101058.06;5020334;28;44788;-78
2022/06/29 05:52:36;;;;;;;;;4.00;4.00;;;;;22.08;100.00;101064.50;5016133;28;45359;-83
2022/06/29 05:55:03;;;;;;;;;4.40;4.00;;;;;22.01;100.00;101063.50;5015917;28;44970;-82
2022/06/29 05:57:29;;;;;;;;;6.00;4.40;;;;;21.78;100.00;101052.50;5022275;28;45155;-83
2022/06/29 05:59:54;;;;;;;;;2.00;2.00;;;;;21.51;100.00;101060.91;5022129;28;45348;-83
2022/06/29 06:02:19;;;;;;;;;3.75;3.00;;;;;21.14;100.00;101056.72;4999227;28;45100;-83
2022/06/29 06:04:45;;;;;;;;;3.50;2.50;;;;;20.70;100.00;101056.88;5017137;28;44996;-85
2022/06/29 06:07:10;;;;;;;;;2.00;2.00;;;;;20.58;100.00;101058.16;5021333;28;45337;-85
2022/06/29 06:09:36;;;;;;;;;5.00;2.00;;;;;20.59;100.00;101053.59;5024805;28;44761;-85
2022/06/29 06:12:01;;;;;;;;;3.50;2.00;;;;;20.74;100.00;101054.69;5022647;28;44810;-86
2022/06/29 06:14:27;;;;;;;;;4.00;2.00;;;;;20.95;100.00;101051.59;5005503;28;45393;-86
2022/06/29 06:16:52;;;;;;;;;3.50;2.00;;;;;21.28;100.00;101053.41;5025795;28;45105;-86
2022/06/29 06:19:18;;;;;;;;;1.00;1.00;;;;;21.62;100.00;101052.50;5005241;28;44809;-86
2022/06/29 06:21:43;;;;;;;;;0.00;0.00;;;;;21.83;100.00;101056.56;5022792;28;44832;-84
2022/06/29 06:24:09;;;;;;;;;4.00;2.50;;;;;21.97;100.00;101051.31;5021936;28;44865;-86
2022/06/29 06:26:34;;;;;;;;;2.00;2.00;;;;;22.16;100.00;101058.28;5021754;28;45204;-85
2022/06/29 06:28:59;;;;;;;;;3.00;3.00;;;;;22.34;100.00;101063.50;5021485;28;44911;-87
2022/06/29 06:31:26;;;;;;;;;3.00;1.00;;;;;22.33;100.00;101061.81;5021664;28;44756;-86
2022/06/29 06:33:51;;;;;;;;;5.00;2.40;;;;;22.29;100.00;101071.31;5020482;28;44846;-86
2022/06/29 06:36:17;;;;;;;;;3.75;1.25;;;;;22.38;100.00;101072.13;5019845;28;45281;-86
2022/06/29 06:38:42;;;;;;;;;1.75;1.75;;;;;22.35;100.00;101070.63;5023765;28;44823;-86
2022/06/29 06:41:23;;;;;;;;;2.00;2.00;;;;;22.56;100.00;101070.06;5025396;28;44649;-87
2022/06/29 06:43:57;;;;;;;;;2.40;2.40;;;;;22.43;100.00;101065.16;5019549;28;45412;-86
2022/06/29 06:46:23;;;;;;;;;2.00;2.00;;;;;22.33;100.00;101069.91;5011059;28;46632;-86
2022/06/29 06:48:50;;;;;;;;;1.00;1.00;;;;;22.30;100.00;101067.56;5023165;28;44854;-84
2022/06/29 06:51:20;;;;;;;;;1.60;1.60;;;;;22.18;100.00;101067.06;5021808;28;45525;-84
2022/06/29 06:53:47;;;;;;;;;4.20;2.20;;;;;22.15;100.00;101053.88;5017542;28;44877;-84
2022/06/29 06:56:13;;;;;;;;;1.00;1.00;;;;;22.32;100.00;101058.25;5018669;28;45610;-84
2022/06/29 06:58:39;;;;;;;;;1.00;1.00;;;;;22.74;98.10;101050.88;5010820;28;44650;-86
2022/06/29 07:01:05;;;;;;;;;1.00;1.00;;;;;23.22;96.30;101063.41;5012415;28;45011;-85
2022/06/29 07:03:31;;;;;;;;;3.40;1.60;;;;;23.28;94.54;101064.56;5004593;28;44954;-85
2022/06/29 07:05:59;;;;;;;;;2.25;1.25;;;;;23.38;93.44;101067.91;5017459;28;45375;-85
2022/06/29 07:08:24;;;;;;;;;1.60;1.00;;;;;23.38;93.39;101064.34;5006663;28;44718;-85
2022/06/29 07:10:50;;;;;;;;;1.00;1.00;;;;;23.40;91.78;101059.56;5005484;28;45002;-86
2022/06/29 07:13:15;;;;;;;;;3.25;2.00;;;;;23.59;93.99;101060.00;5020576;28;45250;-86
2022/06/29 07:15:40;;;;;;;;;1.50;1.25;;;;;23.90;91.24;101059.09;4991798;28;45187;-86
2022/06/29 07:18:06;;;;;;;;;2.00;2.00;;;;;24.01;89.88;101066.81;4989852;28;45357;-84
2022/06/29 07:20:31;;;;;;;;;1.00;1.00;;;;;24.04;89.68;101052.88;5018879;28;44829;-86
2022/06/29 07:22:57;;;;;;;;;2.50;1.50;;;;;24.20;90.47;101051.88;5003861;28;44855;-87
2022/06/29 07:25:22;;;;;;;;;2.75;1.00;;;;;24.51;85.27;101053.63;4995319;28;45219;-86
2022/06/29 07:27:47;;;;;;;;;1.50;1.00;;;;;24.58;84.69;101060.03;5019405;28;44797;-85
2022/06/29 07:30:13;;;;;;;;;1.00;1.00;;;;;24.45;85.60;101059.81;5002088;28;44863;-88
2022/06/29 07:32:39;;;;;;;;;2.50;2.00;;;;;24.76;87.50;101068.66;4990371;28;45295;-86
2022/06/29 07:35:04;;;;;;;;;3.25;1.25;;;;;24.65;82.88;101066.38;5012048;28;45336;-86
2022/06/29 07:37:30;;;;;;;;;3.00;2.00;;;;;24.63;84.08;101065.75;4998680;28;44809;-86
2022/06/29 07:39:55;;;;;;;;;1.25;1.25;;;;;24.94;83.98;101060.09;5019506;28;44748;-85
2022/06/29 07:42:21;;;;;;;;;5.50;2.75;;;;;25.23;82.57;101063.84;5018067;28;44859;-85
2022/06/29 07:44:46;;;;;;;;;3.25;1.75;;;;;25.30;80.82;101053.91;5005324;28;45322;-86
2022/06/29 07:47:11;;;;;;;;;1.00;1.00;;;;;24.98;79.74;101052.41;5001436;28;44794;-85
2022/06/29 07:49:37;;;;;;;;;1.25;1.25;;;;;24.88;81.34;101045.41;5019653;28;44810;-86
2022/06/29 07:52:03;;;;;;;;;4.50;2.00;;;;;24.67;80.41;101045.31;5011607;28;44914;-86
2022/06/29 07:54:28;;;;;;;;;2.00;1.00;;;;;24.76;80.79;101049.63;4986346;28;46669;-86
2022/06/29 07:56:53;;;;;;;;;2.00;1.25;;;;;24.83;79.93;101050.56;5004699;28;44704;-85
2022/06/29 07:59:19;;;;;;;;;1.00;1.00;;;;;24.47;80.26;101055.06;5010339;28;45208;-87
2022/06/29 08:01:44;;;;;;;;;2.50;2.00;;;;;24.64;84.80;101053.00;5010653;28;44892;-85
2022/06/29 08:04:09;;;;;;;;;3.75;2.00;;;;;24.06;83.43;101047.25;5000880;28;47033;-85
2022/06/29 08:06:35;;;;;;;;;1.50;1.50;;;;;24.09;87.34;101044.19;5014724;28;45364;-85
2022/06/29 08:09:03;;;;;;;;;3.00;2.00;;;;;24.29;85.69;101039.91;4986651;28;44816;-87
2022/06/29 08:11:28;;;;;;;;;0.00;0.00;;;;;24.30;82.76;101041.59;5007368;28;45337;-87
2022/06/29 08:13:53;;;;;;;;;3.25;2.00;;;;;24.29;84.64;101041.78;5009145;28;45435;-83
2022/06/29 08:16:19;;;;;;;;;2.00;1.00;;;;;24.17;83.68;101046.81;5008549;28;44809;-83
2022/06/29 08:18:44;;;;;;;;;0.00;0.00;;;;;23.79;85.52;101046.81;5006850;28;45388;-83
2022/06/29 08:21:09;;;;;;;;;4.25;4.25;;;;;23.81;85.71;101043.91;5013882;28;44778;-83
2022/06/29 08:23:35;;;;;;;;;5.00;2.25;;;;;23.75;84.62;101041.94;5006955;28;45408;-83
2022/06/29 08:26:00;;;;;;;;;1.00;1.00;;;;;23.68;85.41;101040.94;4983745;28;44840;-83
2022/06/29 08:28:29;;;;;;;;;2.00;2.00;;;;;23.95;86.10;101036.84;5006613;28;45299;-83
2022/06/29 08:30:55;;;;;;;;;2.00;2.00;;;;;24.00;85.02;101035.28;5011289;28;44709;-84
2022/06/29 08:33:23;;;;;;;;;2.25;2.00;;;;;23.97;87.47;101035.63;5008407;28;45363;-85
2022/06/29 08:35:50;;;;;;;;;3.00;1.20;;;;;24.18;85.86;101036.81;5003236;28;44759;-83
2022/06/29 08:38:16;;;;;;;;;3.40;1.60;;;;;24.40;85.16;101029.66;4997827;28;45432;-83
2022/06/29 08:40:47;;;;;;;;;2.00;2.00;;;;;24.45;83.05;101032.66;5003181;28;44898;-83
2022/06/29 08:43:17;;;;;;;;;1.00;1.00;;;;;24.44;81.99;101031.81;4999649;28;45541;-83
2022/06/29 08:45:48;;;;;;;;;1.20;1.20;;;;;24.23;82.22;101029.81;4982970;28;45302;-84
2022/06/29 08:48:15;;;;;;;;;1.00;0.60;;;;;24.34;81.06;101039.38;5022734;28;44741;-83
2022/06/29 08:50:41;;;;;;;;;3.60;1.60;;;;;24.33;81.23;101037.69;5024097;28;44799;-84
2022/06/29 08:53:09;;;;;;;;;1.00;1.00;;;;;24.48;83.65;101032.28;5021498;28;45333;-84
2022/06/29 08:55:45;;;;;;;;;2.00;1.40;;;;;24.68;83.13;101027.97;5009561;28;45353;-84
2022/06/29 08:58:25;;;;;;;;;2.40;2.00;;;;;24.83;83.68;101023.38;5013360;28;44759;-84
2022/06/29 09:00:51;;;;;;;;;2.80;1.00;;;;;24.90;82.94;101028.91;5017637;28;44868;-84
2022/06/29 09:03:18;;;;;;;;;1.00;1.00;;;;;25.01;80.93;101031.13;5016451;28;45070;-84
2022/06/29 09:05:54;;;;;;;;;2.00;2.00;;;;;25.08;78.32;101036.69;5004145;28;44836;-84
2022/06/29 09:08:20;;;;;;;;;0.60;0.60;;;;;25.13;78.36;101037.78;5000752;28;45306;-83
2022/06/29 09:10:46;;;;;;;;;2.40;2.40;;;;;25.18;78.92;101036.38;5018074;28;44862;-83
2022/06/29 09:13:17;;;;;;;;;2.00;2.00;;;;;24.56;80.74;101033.06;5009174;28;45099;-83
2022/06/29 09:15:43;;;;;;;;;3.00;1.40;;;;;23.92;85.16;101032.63;5016830;28;45503;-84
2022/06/29 09:18:25;;;;;;;;;1.50;1.50;;;;;24.06;85.42;101048.09;4999680;28;44857;-83
2022/06/29 09:20:55;;;;;;;;;3.40;1.60;;;;;24.41;80.97;101032.19;4992823;28;45286;-83
2022/06/29 09:23:22;;;;;;;;;3.20;2.00;;;;;24.61;79.29;101043.34;4996375;28;45162;-85
2022/06/29 09:25:48;;;;;;;;;1.00;1.00;;;;;24.74;79.44;101045.41;5012535;28;45338;-84
2022/06/29 09:28:23;;;;;;;;;3.50;2.75;;;;;24.92;78.71;101047.75;5006385;28;44778;-85
2022/06/29 09:30:48;;;;;;;;;2.20;1.00;;;;;24.77;75.73;101047.75;5019804;28;44844;-84
2022/06/29 09:33:14;;;;;;;;;3.00;1.25;;;;;24.27;76.44;101050.13;5009960;28;45000;-85
2022/06/29 09:35:40;;;;;;;;;1.75;1.00;;;;;24.02;80.26;101054.06;5008357;28;45187;-84
2022/06/29 09:38:20;;;;;;;;;0.00;0.00;;;;;24.21;81.03;101050.84;5002591;28;45422;-84
2022/06/29 09:41:06;;;;;;;;;4.60;2.00;;;;;24.12;82.66;101051.94;5015488;28;45655;-83
2022/06/29 09:43:34;;;;;;;;;4.20;4.20;;;;;24.06;81.98;101056.25;5014042;28;45799;-84
2022/06/29 09:46:01;;;;;;;;;6.20;4.40;;;;;24.06;81.83;101055.41;5005812;28;45412;-83
2022/06/29 09:48:28;;;;;;;;;6.40;2.00;;;;;24.24;84.25;101046.94;5021648;28;44780;-84
2022/06/29 09:50:55;;;;;;;;;1.40;1.20;;;;;24.25;81.96;101052.16;5006883;28;45426;-83
2022/06/29 09:53:37;;;;;;;;;2.20;1.00;;;;;24.16;84.37;101044.28;5001968;28;47180;-83
2022/06/29 09:56:06;;;;;;;;;3.40;1.60;;;;;24.21;80.53;101048.13;5015545;28;44723;-85
2022/06/29 09:58:48;;;;;;;;;3.40;1.80;;;;;24.00;81.48;101048.84;5000790;28;44781;-83
2022/06/29 10:04:00;;;;;;;;;2.60;1.60;;;;;24.68;78.43;101049.72;5012370;28;45766;-83
2022/06/29 10:06:26;;;;;;;;;5.00;2.00;;;;;24.86;78.81;101035.75;5010782;28;44735;-84
2022/06/29 10:08:53;;;;;;;;;4.20;2.20;;;;;25.05;78.73;101037.88;5007659;28;44778;-83
2022/06/29 10:14:54;;;;;;;;;1.20;1.20;;;;;25.09;76.04;101032.91;5009406;28;44953;-83
2022/06/29 10:17:37;;;;;;;;;2.00;2.00;;;;;25.08;76.04;101044.84;4955389;28;45429;-83
2022/06/29 10:20:30;;;;;;;;;0.80;0.80;;;;;24.44;74.80;101036.41;4958299;28;45393;-84
2022/06/29 10:22:55;;;;;;;;;1.00;1.00;;;;;24.56;77.13;101026.75;4958303;28;45287;-82
2022/06/29 10:25:27;;;;;;;;;3.50;2.25;;;;;24.81;77.14;101028.16;4958120;28;45343;-82
2022/06/29 10:28:18;;;;;;;;;1.00;1.00;;;;;24.92;72.72;101029.56;4976939;28;45454;-82
2022/06/29 10:30:45;;;;;;;;;2.20;2.20;;;;;24.46;73.04;101024.31;4976626;28;45457;-82
2022/06/29 10:33:31;;;;;;;;;1.80;1.00;;;;;24.14;73.18;101020.03;4976923;28;44759;-83
2022/06/29 10:36:05;;;;;;;;;2.00;2.00;;;;;23.96;73.91;101022.25;4977099;28;45184;-82
2022/06/29 10:38:35;;;;;;;;;1.80;1.20;;;;;24.36;73.47;101018.31;4977625;28;44810;-82
2022/06/29 10:43:07;;;;;;;;;2.60;2.60;;;;;24.67;72.62;101015.44;4957853;28;45404;-82
2022/06/29 10:43:54;;;;;;;;;2.40;2.40;;;;;24.82;69.52;101009.97;4949546;28;45326;-82
2022/06/29 10:46:21;;;;;;;;;2.00;2.00;;;;;24.99;69.29;101008.72;4978908;28;45066;-81
2022/06/29 10:49:19;;;;;;;;;3.20;1.00;;;;;25.12;63.91;101008.91;4979661;28;44849;-82
2022/06/29 10:51:48;;;;;;;;;2.40;1.20;;;;;25.09;59.01;101014.75;4978992;28;44919;-82
2022/06/29 10:54:30;;;;;;;;;2.60;1.00;;;;;25.03;59.79;101012.75;4995663;28;44832;-82
2022/06/29 10:56:56;;;;;;;;;1.40;1.40;;;;;24.69;62.57;101010.63;5002239;28;45642;-82
2022/06/29 10:59:38;;;;;;;;;2.00;2.00;;;;;24.86;62.86;101014.84;5020993;28;45372;-82
2022/06/29 11:02:22;;;;;;;;;1.00;1.00;;;;;24.66;62.70;101007.44;5020078;28;45379;-82
2022/06/29 11:04:47;;;;;;;;;1.00;1.00;;;;;24.41;66.19;101006.88;5019045;28;45424;-82
2022/06/29 11:12:52;;;;;;;;;2.20;2.20;;;;;25.26;62.81;100999.03;5018069;28;44861;-82
2022/06/29 11:15:47;;;;;;;;;5.00;2.00;;;;;25.53;61.03;100992.00;5018894;28;44707;-82
2022/06/29 11:18:14;;;;;;;;;2.00;2.00;;;;;25.55;60.95;100994.53;5019881;28;45173;-82
2022/06/29 11:20:41;;;;;;;;;0.60;0.60;;;;;25.72;60.13;100987.75;5020736;28;45395;-82
2022/06/29 11:23:10;;;;;;;;;2.00;2.00;;;;;25.83;60.69;100991.88;5017856;28;45438;-82
2022/06/29 11:25:37;;;;;;;;;4.60;2.00;;;;;25.99;61.50;100986.16;5001073;28;44990;-85
2022/06/29 11:28:04;;;;;;;;;3.40;3.40;;;;;26.22;59.82;100983.19;5002205;28;47035;-86
2022/06/29 11:30:29;;;;;;;;;4.60;3.80;;;;;26.37;59.45;100974.88;5014458;28;45425;-86
2022/06/29 11:32:55;;;;;;;;;2.25;2.00;;;;;26.55;57.82;100977.13;4982325;28;44786;-86
2022/06/29 11:35:22;;;;;;;;;1.00;1.00;;;;;26.14;54.96;100981.44;5000356;28;45295;-86
2022/06/29 11:37:53;;;;;;;;;2.40;1.60;;;;;26.18;57.26;100964.72;4984916;28;46745;-86
2022/06/29 11:40:28;;;;;;;;;2.20;2.00;;;;;25.88;58.84;100978.53;4986212;28;44816;-86
2022/06/29 11:43:07;;;;;;;;;1.60;1.60;;;;;26.22;58.29;100979.63;4983468;28;44838;-86